Time;durP1;ratioP1;P1;durP2;ratioP2;P2;SDS_P1;SDS_P2;PMS_P1;PMS_P2;Temp;Humidity;BMP_temperature;BMP_pressure;BME280_temperature;BME280_humidity;BME280_pressure;Samples;Min_cycle;Max_cycle;Signal;HPM_P1;HPM_P2
2022/01/20 00:00:33;;;;;;;5.38;3.38;;;5.30;81.30;;;;;;5018408;28;20212;-78
2022/01/20 00:03:10;;;;;;;5.60;3.40;;;5.30;81.30;;;;;;5016375;28;20194;-79
2022/01/20 00:06:12;;;;;;;5.10;3.17;;;5.30;81.20;;;;;;5020032;28;20205;-78
2022/01/20 00:08:38;;;;;;;4.95;3.30;;;5.30;81.40;;;;;;5020158;28;20618;-78
2022/01/20 00:27:52;;;;;;;4.88;2.60;;;5.20;81.60;;;;;;5015213;28;20428;-75
2022/01/20 00:30:42;;;;;;;4.10;2.70;;;5.30;81.70;;;;;;5016947;28;20247;-75
2022/01/20 00:33:19;;;;;;;3.95;2.85;;;5.30;81.90;;;;;;5021801;28;20229;-75
2022/01/20 00:38:35;;;;;;;4.70;3.00;;;5.30;81.90;;;;;;5018328;28;20229;-77
2022/01/20 00:41:04;;;;;;;5.18;3.65;;;5.30;81.80;;;;;;5013300;28;20240;-78
2022/01/20 00:43:33;;;;;;;4.47;2.67;;;5.30;81.80;;;;;;5016035;28;20208;-78
2022/01/20 00:46:00;;;;;;;5.25;3.35;;;5.30;82.00;;;;;;5017166;28;20203;-78
2022/01/20 00:48:28;;;;;;;3.60;2.65;;;5.30;81.90;;;;;;5015896;28;20588;-78
2022/01/20 00:50:56;;;;;;;4.22;3.00;;;5.30;82.20;;;;;;5015081;28;20827;-78
2022/01/20 00:53:25;;;;;;;3.80;2.90;;;5.40;82.10;;;;;;5018078;28;20259;-78
2022/01/20 00:55:54;;;;;;;4.75;3.35;;;5.40;82.20;;;;;;5012665;28;20446;-78
2022/01/20 00:58:22;;;;;;;5.32;3.30;;;5.40;81.90;;;;;;5035433;28;20276;-78
2022/01/20 01:00:50;;;;;;;4.55;3.20;;;5.40;82.00;;;;;;5019095;28;20198;-78
2022/01/20 01:03:18;;;;;;;4.18;3.15;;;5.40;82.20;;;;;;5015978;28;20667;-77
2022/01/20 01:06:01;;;;;;;4.25;2.83;;;5.40;82.10;;;;;;5021600;28;20741;-77
2022/01/20 01:08:29;;;;;;;4.70;3.55;;;5.40;82.10;;;;;;5021183;28;20229;-77
2022/01/20 01:10:58;;;;;;;5.60;4.40;;;5.40;82.20;;;;;;5014890;28;20209;-77
2022/01/20 01:13:28;;;;;;;6.47;4.15;;;5.40;82.60;;;;;;5015861;28;20263;-77
2022/01/20 01:15:56;;;;;;;5.70;3.88;;;5.30;82.70;;;;;;5016938;28;20212;-77
2022/01/20 01:21:15;;;;;;;5.82;4.20;;;5.30;82.40;;;;;;5029352;28;20205;-78
2022/01/20 01:23:45;;;;;;;9.40;4.25;;;5.40;82.60;;;;;;5031101;28;20772;-78
2022/01/20 01:26:18;;;;;;;5.32;3.75;;;5.40;82.50;;;;;;5020689;28;20267;-78
2022/01/20 01:28:46;;;;;;;5.10;3.65;;;5.40;82.40;;;;;;5031630;28;20288;-78
2022/01/20 01:34:01;;;;;;;6.40;4.38;;;5.40;82.60;;;;;;5031878;28;20812;-78
2022/01/20 01:36:39;;;;;;;5.68;4.45;;;5.40;82.70;;;;;;5020225;28;20278;-78
2022/01/20 01:39:07;;;;;;;6.88;5.07;;;5.40;82.60;;;;;;5030427;28;20244;-79
2022/01/20 01:41:38;;;;;;;6.95;4.80;;;5.50;82.60;;;;;;5031412;28;20213;-78
2022/01/20 01:44:09;;;;;;;7.28;5.38;;;5.50;82.60;;;;;;5012670;28;20229;-78
2022/01/20 01:46:39;;;;;;;6.72;5.13;;;5.50;82.70;;;;;;5017438;28;20210;-78
2022/01/20 01:49:07;;;;;;;7.60;4.50;;;5.50;82.80;;;;;;5018545;28;20229;-78
2022/01/20 01:51:35;;;;;;;6.47;5.00;;;5.50;82.70;;;;;;5019852;28;20205;-76
2022/01/20 01:54:03;;;;;;;6.60;4.93;;;5.50;82.70;;;;;;5031571;28;20663;-76
2022/01/20 01:56:35;;;;;;;5.88;4.82;;;5.50;82.80;;;;;;5012204;28;20225;-76
2022/01/20 01:59:08;;;;;;;6.43;4.95;;;5.50;82.80;;;;;;5010107;28;20233;-76
2022/01/20 02:01:54;;;;;;;7.03;4.93;;;5.60;82.80;;;;;;5020115;28;20662;-77
2022/01/20 02:04:22;;;;;;;7.28;5.18;;;5.60;83.00;;;;;;5028543;28;20201;-76
2022/01/20 02:07:39;;;;;;;9.13;5.80;;;5.60;82.80;;;;;;5012820;28;20687;-78
2022/01/20 02:18:44;;;;;;;8.70;5.85;;;5.50;83.00;;;;;;5020220;28;20222;-78
2022/01/20 02:21:31;;;;;;;7.43;5.72;;;5.60;83.10;;;;;;5012287;28;20688;-78
2022/01/20 02:24:01;;;;;;;7.80;5.97;;;5.60;83.20;;;;;;5014688;28;20227;-79
2022/01/20 02:26:29;;;;;;;8.40;6.00;;;5.60;83.10;;;;;;5028288;28;20206;-78
2022/01/20 02:28:58;;;;;;;8.02;5.70;;;5.70;83.20;;;;;;5018566;28;20609;-78
2022/01/20 02:31:26;;;;;;;8.75;6.85;;;5.70;83.10;;;;;;5014381;28;20206;-78
2022/01/20 02:33:57;;;;;;;9.65;6.20;;;5.70;82.90;;;;;;5011450;28;20707;-78
2022/01/20 02:36:27;;;;;;;9.85;6.18;;;5.70;83.10;;;;;;5018558;28;20415;-78
2022/01/20 02:39:07;;;;;;;7.80;5.55;;;5.70;82.90;;;;;;5021789;28;20602;-78
2022/01/20 02:47:15;;;;;;;9.65;6.32;;;5.70;83.10;;;;;;5031919;28;20295;-78
2022/01/20 02:49:43;;;;;;;7.72;5.53;;;5.70;83.10;;;;;;5016626;28;20233;-78
2022/01/20 02:52:10;;;;;;;7.38;5.90;;;5.70;83.10;;;;;;5017959;28;20703;-78
2022/01/20 02:54:40;;;;;;;7.05;5.45;;;5.70;83.20;;;;;;5022245;28;20567;-78
2022/01/20 02:57:09;;;;;;;12.60;6.15;;;5.70;83.20;;;;;;5016043;28;20211;-78
2022/01/20 02:59:38;;;;;;;10.50;5.65;;;5.70;83.30;;;;;;5021716;28;20295;-79
2022/01/20 03:02:08;;;;;;;11.23;6.00;;;5.70;83.30;;;;;;5021992;28;20267;-76
2022/01/20 03:04:37;;;;;;;9.40;5.40;;;5.80;83.20;;;;;;5017427;28;20239;-76
2022/01/20 03:07:18;;;;;;;8.80;5.55;;;5.80;83.20;;;;;;5018329;28;20287;-76
2022/01/20 03:09:47;;;;;;;10.45;5.43;;;5.80;83.20;;;;;;5023520;28;20231;-77
2022/01/20 03:12:16;;;;;;;11.27;6.57;;;5.80;83.20;;;;;;5017960;28;20207;-78
2022/01/20 03:14:44;;;;;;;14.25;6.68;;;5.80;83.10;;;;;;5017785;28;20229;-78
2022/01/20 03:17:13;;;;;;;9.20;5.63;;;5.80;83.10;;;;;;5023619;28;20550;-77
2022/01/20 03:19:42;;;;;;;7.90;5.30;;;5.80;83.20;;;;;;5021115;28;20321;-77
2022/01/20 03:22:10;;;;;;;10.30;5.25;;;5.80;83.20;;;;;;5023155;28;20844;-76
2022/01/20 03:24:38;;;;;;;9.98;6.00;;;5.80;83.20;;;;;;5023221;28;20199;-77
2022/01/20 03:27:08;;;;;;;9.02;5.93;;;5.90;83.10;;;;;;5016614;28;20233;-76
2022/01/20 03:29:36;;;;;;;7.20;5.40;;;5.80;83.10;;;;;;5025582;28;20233;-77
2022/01/20 03:32:05;;;;;;;7.55;5.70;;;5.80;83.20;;;;;;5011082;28;20961;-77
2022/01/20 03:34:33;;;;;;;8.75;5.10;;;5.80;83.10;;;;;;5016309;28;20687;-76
2022/01/20 03:37:08;;;;;;;8.13;5.80;;;5.80;82.90;;;;;;5017674;28;20284;-77
2022/01/20 03:39:54;;;;;;;10.00;5.40;;;5.80;83.10;;;;;;5019237;28;20212;-77
2022/01/20 03:42:23;;;;;;;8.75;6.13;;;5.80;83.20;;;;;;5020222;28;20199;-76
2022/01/20 03:44:52;;;;;;;10.52;6.40;;;5.80;83.10;;;;;;5021510;28;20671;-76
2022/01/20 03:47:23;;;;;;;9.70;5.65;;;5.80;83.20;;;;;;5034248;28;20207;-76
2022/01/20 03:50:05;;;;;;;14.65;6.65;;;5.80;83.30;;;;;;5022467;28;20218;-77
2022/01/20 03:52:33;;;;;;;14.70;6.13;;;5.80;83.20;;;;;;5031514;28;20213;-76
2022/01/20 03:55:03;;;;;;;10.65;5.82;;;5.70;83.10;;;;;;5015866;28;20228;-76
2022/01/20 03:57:51;;;;;;;7.90;6.25;;;5.70;83.20;;;;;;5023692;28;20425;-78
2022/01/20 04:00:19;;;;;;;11.05;5.80;;;5.70;83.20;;;;;;5018215;28;20206;-78
2022/01/20 04:02:58;;;;;;;10.38;7.07;;;5.70;83.20;;;;;;5019466;28;20655;-78
2022/01/20 04:05:56;;;;;;;13.88;6.65;;;5.70;83.20;;;;;;5018299;28;20694;-78
2022/01/20 04:08:47;;;;;;;15.25;6.85;;;5.70;83.30;;;;;;5017003;28;20240;-78
2022/01/20 04:11:17;;;;;;;13.00;7.38;;;5.70;83.30;;;;;;5033781;28;20236;-76
2022/01/20 04:13:47;;;;;;;14.73;6.63;;;5.70;83.30;;;;;;5018620;28;20213;-76
2022/01/20 04:16:33;;;;;;;19.55;7.18;;;5.70;83.40;;;;;;5023390;28;20213;-76
2022/01/20 04:19:04;;;;;;;15.32;7.20;;;5.70;83.40;;;;;;5022111;28;20229;-76
2022/01/20 04:21:32;;;;;;;19.75;7.60;;;5.70;83.40;;;;;;5014641;28;20218;-75
2022/01/20 04:24:01;;;;;;;14.90;6.97;;;5.80;83.30;;;;;;5015474;28;20663;-76
2022/01/20 04:26:31;;;;;;;15.48;8.27;;;5.80;83.30;;;;;;5032009;28;20717;-77
2022/01/20 04:29:00;;;;;;;18.95;8.52;;;5.70;83.40;;;;;;5017161;28;20233;-77
2022/01/20 04:31:32;;;;;;;19.52;8.82;;;5.70;83.50;;;;;;5023500;28;20210;-77
2022/01/20 04:34:00;;;;;;;14.27;7.90;;;5.70;83.60;;;;;;5021089;28;20241;-76
2022/01/20 04:36:31;;;;;;;20.60;9.57;;;5.70;83.60;;;;;;5018859;28;20204;-78
2022/01/20 04:39:01;;;;;;;30.50;9.30;;;5.60;83.70;;;;;;5032130;28;20260;-78
2022/01/20 04:41:30;;;;;;;17.10;8.13;;;5.60;83.60;;;;;;5016816;28;20585;-78
2022/01/20 04:44:07;;;;;;;13.80;7.15;;;5.60;83.70;;;;;;5020527;28;20199;-79
2022/01/20 04:46:40;;;;;;;16.95;7.75;;;5.60;83.70;;;;;;5019541;28;20720;-78
2022/01/20 04:57:01;;;;;;;18.00;7.63;;;5.60;83.60;;;;;;5018078;28;20260;-78
2022/01/20 04:57:29;;;;;;;10.45;6.78;;;5.50;83.60;;;;;;5016063;28;20275;-79
2022/01/20 04:59:58;;;;;;;16.08;7.97;;;5.60;83.60;;;;;;5017213;28;20204;-77
2022/01/20 05:02:29;;;;;;;13.85;7.43;;;5.60;83.70;;;;;;5020184;28;20204;-77
2022/01/20 05:04:59;;;;;;;10.27;6.28;;;5.60;83.70;;;;;;5014376;28;20186;-77
2022/01/20 05:07:46;;;;;;;16.42;6.45;;;5.60;83.70;;;;;;5017713;28;20232;-78
2022/01/20 05:10:14;;;;;;;14.88;7.85;;;5.60;83.70;;;;;;5017618;28;20754;-78
2022/01/20 05:15:44;;;;;;;17.42;7.75;;;5.60;83.70;;;;;;4979040;28;20230;-78
2022/01/20 05:18:12;;;;;;;15.57;8.05;;;5.60;83.70;;;;;;5002410;28;20238;-78
2022/01/20 05:20:40;;;;;;;17.33;7.05;;;5.60;83.70;;;;;;5015039;28;20608;-78
2022/01/20 05:23:09;;;;;;;17.92;7.70;;;5.60;83.60;;;;;;5031002;28;20519;-78
2022/01/20 05:25:36;;;;;;;21.13;7.28;;;5.60;83.70;;;;;;5017002;28;20203;-78
2022/01/20 05:28:06;;;;;;;18.42;6.57;;;5.60;83.40;;;;;;5030538;28;20614;-76
2022/01/20 05:30:34;;;;;;;11.80;6.88;;;5.60;83.20;;;;;;5018749;28;20205;-76
2022/01/20 05:33:25;;;;;;;16.58;7.55;;;5.50;83.30;;;;;;5020672;28;20253;-76
2022/01/20 05:35:55;;;;;;;18.80;7.10;;;5.50;83.30;;;;;;5023890;28;20217;-77
2022/01/20 05:38:22;;;;;;;21.20;7.05;;;5.40;83.40;;;;;;5033266;28;20225;-76
2022/01/20 05:40:52;;;;;;;24.75;7.65;;;5.40;83.40;;;;;;5017859;28;20232;-77
2022/01/20 05:43:20;;;;;;;13.80;6.55;;;5.40;83.40;;;;;;5020617;28;20200;-76
2022/01/20 05:45:51;;;;;;;21.98;8.00;;;5.40;83.50;;;;;;5033289;28;20546;-79
2022/01/20 05:48:27;;;;;;;14.85;8.05;;;5.40;83.50;;;;;;5015242;28;20605;-78
2022/01/20 05:51:16;;;;;;;18.77;6.65;;;5.40;83.50;;;;;;5016540;28;20278;-78
2022/01/20 05:53:44;;;;;;;22.17;7.90;;;5.40;83.40;;;;;;5014118;28;20296;-78
2022/01/20 05:56:12;;;;;;;19.17;6.88;;;5.40;83.40;;;;;;5011854;28;20275;-78
2022/01/20 05:58:40;;;;;;;18.77;7.20;;;5.40;83.40;;;;;;5016652;28;20688;-79
2022/01/20 06:01:12;;;;;;;18.95;7.32;;;5.30;83.40;;;;;;5014322;28;20218;-79
2022/01/20 06:03:40;;;;;;;16.48;7.28;;;5.30;83.50;;;;;;5017444;28;20206;-79
2022/01/20 06:06:16;;;;;;;15.00;6.88;;;5.40;83.40;;;;;;5016179;28;20750;-79
2022/01/20 06:08:45;;;;;;;21.75;7.03;;;5.40;83.40;;;;;;5034066;28;20221;-78
2022/01/20 06:11:16;;;;;;;16.00;6.47;;;5.30;83.30;;;;;;5014775;28;20206;-77
2022/01/20 06:13:46;;;;;;;24.55;6.30;;;5.30;83.30;;;;;;5018071;28;20206;-77
2022/01/20 06:16:15;;;;;;;17.55;6.90;;;5.30;83.40;;;;;;5033611;28;20309;-77
2022/01/20 06:18:43;;;;;;;16.88;7.05;;;5.30;83.40;;;;;;5032187;28;20230;-78
2022/01/20 06:21:11;;;;;;;17.00;6.93;;;5.30;83.50;;;;;;5019151;28;20271;-78
2022/01/20 06:23:41;;;;;;;24.65;7.03;;;5.30;83.50;;;;;;5018955;28;20317;-78
2022/01/20 06:26:09;;;;;;;19.25;6.78;;;5.30;83.70;;;;;;5031632;28;20664;-78
2022/01/20 06:28:40;;;;;;;20.90;6.95;;;5.30;83.40;;;;;;5012166;28;20233;-78
2022/01/20 06:31:09;;;;;;;16.65;7.20;;;5.30;83.40;;;;;;5013456;28;20217;-76
2022/01/20 06:33:38;;;;;;;16.70;6.78;;;5.30;83.40;;;;;;5014526;28;20768;-76
2022/01/20 06:36:08;;;;;;;15.05;6.57;;;5.30;83.40;;;;;;5022440;28;20320;-76
2022/01/20 06:38:36;;;;;;;18.98;6.65;;;5.30;83.40;;;;;;5021038;28;20742;-76
2022/01/20 06:41:06;;;;;;;22.45;6.50;;;5.30;83.30;;;;;;5019832;28;20200;-76
2022/01/20 06:43:35;;;;;;;18.35;6.60;;;5.30;83.40;;;;;;5020061;28;20209;-76
2022/01/20 06:46:05;;;;;;;17.23;7.40;;;5.30;83.30;;;;;;5018098;28;20208;-76
2022/01/20 06:49:10;;;;;;;18.70;7.50;;;5.30;83.30;;;;;;5006025;28;20294;-76
2022/01/20 06:51:58;;;;;;;15.13;7.05;;;5.20;83.40;;;;;;5012780;28;20209;-78
2022/01/20 06:54:27;;;;;;;13.10;7.22;;;5.20;83.40;;;;;;5012022;28;20667;-78
2022/01/20 06:56:56;;;;;;;17.95;6.43;;;5.20;83.50;;;;;;5013923;28;20249;-77
2022/01/20 06:59:24;;;;;;;15.60;6.22;;;5.20;83.60;;;;;;5021181;28;20632;-77
2022/01/20 07:01:53;;;;;;;14.85;5.90;;;5.20;83.60;;;;;;5030286;28;20668;-78
2022/01/20 07:04:26;;;;;;;15.35;6.45;;;5.20;83.60;;;;;;5013619;28;20201;-78
2022/01/20 07:06:55;;;;;;;25.75;7.00;;;5.20;83.60;;;;;;5026968;28;20200;-78
2022/01/20 07:09:49;;;;;;;18.10;6.55;;;5.20;83.70;;;;;;5016981;28;20224;-78
2022/01/20 07:12:39;;;;;;;18.27;6.28;;;5.30;83.70;;;;;;5014114;28;20285;-78
2022/01/20 07:15:12;;;;;;;15.30;6.85;;;5.30;83.50;;;;;;5012248;28;20225;-78
2022/01/20 07:17:41;;;;;;;17.45;6.82;;;5.30;83.60;;;;;;5014767;28;20811;-78
2022/01/20 07:20:11;;;;;;;21.98;6.53;;;5.30;83.50;;;;;;5010643;28;20197;-78
2022/01/20 07:22:51;;;;;;;16.08;5.20;;;5.30;83.60;;;;;;5029776;28;20206;-78
2022/01/20 07:25:19;;;;;;;20.10;6.00;;;5.30;83.50;;;;;;5015073;28;20277;-78
2022/01/20 07:27:54;;;;;;;19.02;5.63;;;5.30;83.50;;;;;;5014740;28;20217;-78
2022/01/20 07:30:33;;;;;;;13.48;5.40;;;5.30;83.40;;;;;;5026074;28;20420;-77
2022/01/20 07:33:03;;;;;;;14.75;5.57;;;5.30;83.40;;;;;;5009191;28;20217;-77
2022/01/20 07:35:35;;;;;;;16.73;5.38;;;5.30;83.40;;;;;;5014229;28;20722;-78
2022/01/20 07:38:03;;;;;;;13.48;4.93;;;5.30;83.60;;;;;;5031289;28;20575;-78
2022/01/20 07:40:32;;;;;;;13.07;4.38;;;5.30;83.70;;;;;;5034605;28;20728;-78
2022/01/20 07:43:02;;;;;;;14.88;4.97;;;5.30;83.50;;;;;;5016326;28;20491;-78
2022/01/20 07:45:48;;;;;;;14.45;5.68;;;5.30;83.50;;;;;;5019899;28;20288;-76
2022/01/20 07:48:22;;;;;;;23.50;5.43;;;5.30;83.50;;;;;;5012883;28;20315;-75
2022/01/20 07:50:58;;;;;;;21.52;5.50;;;5.30;83.70;;;;;;5019473;28;20702;-78
2022/01/20 07:53:32;;;;;;;12.18;4.50;;;5.30;83.50;;;;;;5022068;28;20670;-78
2022/01/20 07:56:00;;;;;;;14.48;4.07;;;5.30;83.50;;;;;;5023633;28;20628;-78
2022/01/20 07:58:29;;;;;;;14.27;4.45;;;5.30;83.70;;;;;;5019584;28;20234;-78
2022/01/20 08:00:57;;;;;;;18.08;4.60;;;5.30;83.50;;;;;;5024703;28;20205;-78
2022/01/20 08:03:27;;;;;;;16.55;4.47;;;5.30;83.70;;;;;;5022756;28;20203;-78
2022/01/20 08:06:04;;;;;;;12.27;5.45;;;5.30;83.70;;;;;;5024070;28;20303;-78
2022/01/20 08:08:38;;;;;;;12.30;4.30;;;5.30;83.70;;;;;;5017984;28;20228;-78
2022/01/20 08:11:27;;;;;;;26.55;4.70;;;5.30;83.70;;;;;;5013366;28;20301;-77
2022/01/20 08:14:05;;;;;;;17.17;4.30;;;5.30;83.80;;;;;;5020919;28;20193;-78
2022/01/20 08:16:33;;;;;;;17.83;5.22;;;5.30;83.80;;;;;;5032023;28;20236;-78
2022/01/20 08:19:01;;;;;;;17.58;4.10;;;5.40;83.70;;;;;;5023234;28;20217;-77
2022/01/20 08:21:29;;;;;;;12.20;5.32;;;5.40;83.50;;;;;;5017891;28;20211;-78
2022/01/20 08:23:57;;;;;;;19.38;5.00;;;5.40;83.50;;;;;;5016110;28;20211;-78
2022/01/20 08:26:26;;;;;;;12.15;4.00;;;5.40;83.50;;;;;;5022029;28;20198;-78
2022/01/20 08:28:54;;;;;;;15.88;4.10;;;5.40;83.40;;;;;;5014882;28;20229;-78
2022/01/20 08:31:25;;;;;;;19.13;4.25;;;5.40;83.40;;;;;;5019198;28;20279;-78
2022/01/20 08:33:53;;;;;;;14.27;3.50;;;5.40;83.50;;;;;;5022994;28;20376;-78
2022/01/20 08:36:30;;;;;;;12.40;4.00;;;5.40;83.40;;;;;;5018247;28;20686;-78
2022/01/20 08:38:58;;;;;;;16.60;4.40;;;5.40;83.50;;;;;;5021350;28;20225;-78
2022/01/20 08:41:26;;;;;;;16.30;3.85;;;5.40;83.40;;;;;;5020993;28;20291;-78
2022/01/20 08:43:54;;;;;;;9.60;3.45;;;5.40;83.40;;;;;;5014237;28;20216;-78
2022/01/20 08:46:25;;;;;;;11.82;4.13;;;5.40;83.40;;;;;;5014102;28;20293;-78
2022/01/20 08:48:53;;;;;;;16.02;4.10;;;5.40;83.20;;;;;;5020786;28;20694;-78
2022/01/20 08:51:37;;;;;;;10.20;3.60;;;5.40;83.30;;;;;;5034197;28;20209;-78
2022/01/20 08:54:13;;;;;;;16.58;3.65;;;5.40;83.50;;;;;;5018601;28;20202;-78
2022/01/20 08:56:41;;;;;;;9.63;3.63;;;5.40;83.50;;;;;;5017294;28;20235;-78
2022/01/20 08:59:12;;;;;;;10.55;3.03;;;5.50;83.40;;;;;;5016297;28;20695;-78
2022/01/20 09:01:42;;;;;;;8.70;3.42;;;5.50;83.40;;;;;;5016417;28;20586;-75
2022/01/20 09:04:11;;;;;;;10.98;3.38;;;5.50;83.30;;;;;;5014493;28;20205;-78
2022/01/20 09:06:57;;;;;;;9.23;3.72;;;5.50;83.40;;;;;;5012024;28;20205;-78
2022/01/20 09:09:39;;;;;;;12.73;3.17;;;5.50;83.30;;;;;;4989211;28;20291;-78
2022/01/20 09:12:18;;;;;;;6.93;2.95;;;5.50;83.20;;;;;;4996738;28;20225;-78
2022/01/20 09:17:35;;;;;;;12.95;3.63;;;5.50;83.30;;;;;;5014919;28;20318;-78
2022/01/20 09:20:04;;;;;;;15.25;3.47;;;5.50;83.30;;;;;;4995508;28;20564;-78
2022/01/20 09:22:32;;;;;;;10.85;6.65;;;5.50;83.30;;;;;;4987453;28;20332;-78
2022/01/20 09:25:00;;;;;;;12.27;3.45;;;5.50;83.10;;;;;;5016335;28;20289;-78
2022/01/20 09:27:28;;;;;;;12.45;3.33;;;5.50;83.10;;;;;;5014708;28;20203;-78
2022/01/20 09:29:56;;;;;;;8.50;2.97;;;5.60;83.00;;;;;;5029267;28;20228;-78
2022/01/20 09:32:27;;;;;;;13.52;3.35;;;5.50;83.00;;;;;;5017127;28;20269;-75
2022/01/20 09:34:56;;;;;;;8.73;3.63;;;5.50;83.00;;;;;;5011333;28;20205;-75
2022/01/20 09:37:24;;;;;;;8.77;3.28;;;5.50;82.90;;;;;;5031244;28;20299;-75
2022/01/20 09:39:53;;;;;;;9.35;3.30;;;5.40;83.00;;;;;;4997210;28;20321;-75
2022/01/20 09:42:39;;;;;;;9.57;3.28;;;5.40;83.00;;;;;;5013368;28;20208;-76
2022/01/20 09:45:07;;;;;;;8.18;2.90;;;5.40;83.00;;;;;;5020698;28;20207;-78
2022/01/20 09:47:37;;;;;;;8.38;2.53;;;5.40;83.10;;;;;;5018171;28;20707;-78
2022/01/20 09:50:26;;;;;;;9.25;3.40;;;5.40;83.10;;;;;;5014342;28;20632;-78
2022/01/20 09:53:14;;;;;;;6.32;2.80;;;5.30;83.20;;;;;;5015751;28;20216;-78
2022/01/20 09:56:02;;;;;;;8.50;3.33;;;5.30;83.20;;;;;;5016825;28;20193;-78
2022/01/20 09:58:36;;;;;;;17.33;3.60;;;5.30;83.20;;;;;;5014645;28;20236;-78
2022/01/20 10:01:05;;;;;;;13.20;3.92;;;5.30;83.40;;;;;;5014297;28;20213;-78
2022/01/20 10:03:35;;;;;;;8.50;3.05;;;5.40;83.40;;;;;;5016339;28;20204;-78
2022/01/20 10:06:06;;;;;;;9.18;3.38;;;5.40;83.40;;;;;;5018666;28;20628;-78
2022/01/20 10:08:40;;;;;;;11.00;3.80;;;5.40;83.40;;;;;;5014750;28;20230;-78
2022/01/20 10:11:18;;;;;;;11.75;3.85;;;5.40;83.40;;;;;;5016851;28;20674;-78
2022/01/20 10:13:59;;;;;;;8.45;3.53;;;5.40;83.30;;;;;;5013694;28;20607;-78
2022/01/20 10:16:40;;;;;;;9.23;3.20;;;5.40;83.40;;;;;;5015417;28;20212;-77
2022/01/20 10:19:23;;;;;;;8.60;2.95;;;5.40;83.40;;;;;;5028597;28;20229;-78
2022/01/20 10:21:52;;;;;;;10.05;3.25;;;5.40;83.20;;;;;;5016031;28;20205;-78
2022/01/20 10:25:02;;;;;;;8.32;2.72;;;5.40;83.30;;;;;;5016534;28;20606;-79
2022/01/20 10:27:54;;;;;;;9.20;3.65;;;5.40;83.40;;;;;;5009539;28;20336;-79
2022/01/20 10:30:24;;;;;;;7.63;3.03;;;5.30;83.30;;;;;;5011064;28;20198;-78
2022/01/20 10:32:55;;;;;;;5.85;2.55;;;5.30;83.30;;;;;;5018203;28;20206;-77
2022/01/20 10:35:26;;;;;;;5.88;2.08;;;5.30;83.40;;;;;;5009726;28;20208;-76
2022/01/20 10:38:09;;;;;;;9.85;2.90;;;5.30;83.50;;;;;;5014663;28;20236;-76
2022/01/20 10:40:50;;;;;;;6.97;2.70;;;5.30;83.30;;;;;;5012236;28;20216;-76
2022/01/20 11:14:14;;;;;;;4.55;2.05;;;5.40;83.40;;;;;;5038415;23;20659;-69
2022/01/20 11:16:45;;;;;;;10.55;1.92;;;5.50;83.60;;;;;;5018750;28;20303;-69
2022/01/20 11:19:17;;;;;;;5.80;2.30;;;5.50;82.90;;;;;;5033061;28;20221;-69
2022/01/20 11:21:46;;;;;;;6.83;2.67;;;5.50;82.60;;;;;;4141580;28;10000086;-69
2022/01/20 11:24:19;;;;;;;5.30;2.05;;;5.50;81.30;;;;;;5011135;28;20210;-69
2022/01/20 11:27:19;;;;;;;8.33;2.23;;;5.50;81.30;;;;;;4157748;28;10000530;-70
2022/01/20 11:30:17;;;;;;;7.53;2.08;;;5.50;80.90;;;;;;5031406;28;20302;-69
2022/01/20 11:33:01;;;;;;;7.03;2.25;;;5.40;79.30;;;;;;4146223;28;10000990;-68
2022/01/20 11:35:38;;;;;;;6.60;2.03;;;5.40;80.80;;;;;;4154054;28;10000881;-68
2022/01/20 11:38:06;;;;;;;6.05;2.50;;;5.40;79.10;;;;;;5035579;28;20275;-68
2022/01/20 11:40:35;;;;;;;7.93;2.53;;;5.30;79.70;;;;;;5037274;28;20592;-66
2022/01/20 11:43:08;;;;;;;5.57;2.15;;;5.30;77.40;;;;;;5018203;28;20746;-67
2022/01/20 11:45:40;;;;;;;10.97;2.57;;;5.30;79.80;;;;;;4327105;28;10001509;-66
2022/01/20 11:48:13;;;;;;;7.53;2.20;;;5.30;79.30;;;;;;5031719;28;20209;-67
2022/01/20 11:50:43;;;;;;;8.00;2.42;;;5.30;79.10;;;;;;5032454;28;20337;-68
2022/01/20 11:53:13;;;;;;;9.30;2.42;;;5.30;79.20;;;;;;5034874;28;20201;-67
2022/01/20 11:55:50;;;;;;;5.70;2.17;;;5.30;75.80;;;;;;5039074;28;20212;-67
2022/01/20 11:58:21;;;;;;;6.90;1.98;;;5.20;74.80;;;;;;5034389;28;21779;-67
2022/01/20 12:01:00;;;;;;;9.05;3.03;;;5.10;75.40;;;;;;5031883;28;20226;-67
2022/01/20 12:03:53;;;;;;;9.56;5.67;;;5.20;77.60;;;;;;4656078;28;10001148;-67
2022/01/20 12:06:42;;;;;;;13.18;2.70;;;5.20;77.30;;;;;;5029479;28;20211;-67
2022/01/20 12:09:29;;;;;;;8.00;2.42;;;5.20;76.90;;;;;;5036392;28;20331;-67
2022/01/20 12:11:57;;;;;;;7.80;2.20;;;5.30;77.20;;;;;;5018959;28;20215;-67
2022/01/20 12:14:38;;;;;;;7.32;4.10;;;5.30;75.50;;;;;;3963466;28;10001188;-67
2022/01/20 12:17:11;;;;;;;4.35;1.92;;;5.20;74.80;;;;;;4517409;28;10001264;-67
2022/01/20 12:19:39;;;;;;;17.35;2.13;;;5.20;75.50;;;;;;5033886;28;20613;-67
2022/01/20 12:22:09;;;;;;;14.98;3.47;;;5.20;74.50;;;;;;5035562;28;20207;-67
2022/01/20 12:29:03;;;;;;;6.28;2.38;;;5.10;74.60;;;;;;5033204;28;20207;-67
2022/01/20 12:31:31;;;;;;;7.53;2.35;;;5.20;75.60;;;;;;5017482;28;20219;-67
2022/01/20 12:34:02;;;;;;;8.60;2.50;;;5.10;72.00;;;;;;5038639;28;20205;-68
2022/01/20 12:36:30;;;;;;;7.20;1.90;;;5.00;73.90;;;;;;5036150;28;20205;-67
2022/01/20 12:38:59;;;;;;;14.70;2.60;;;5.00;73.70;;;;;;5038237;28;20235;-68
2022/01/20 12:41:27;;;;;;;14.23;2.58;;;5.00;74.40;;;;;;5038169;28;20250;-67
2022/01/20 12:44:20;;;;;;;11.38;2.00;;;5.00;73.30;;;;;;5035777;28;20676;-67
2022/01/20 12:46:48;;;;;;;9.57;2.40;;;5.00;73.90;;;;;;5033899;28;20693;-67
2022/01/20 12:49:19;;;;;;;5.72;1.95;;;5.00;73.80;;;;;;5032374;28;20688;-67
2022/01/20 12:51:50;;;;;;;7.70;2.20;;;5.10;74.50;;;;;;5034747;28;20201;-67
2022/01/20 12:54:21;;;;;;;6.28;2.05;;;5.10;74.40;;;;;;5034848;28;20665;-67
2022/01/20 12:56:50;;;;;;;4.88;2.45;;;5.10;73.90;;;;;;5034664;28;20205;-67
2022/01/20 12:59:21;;;;;;;12.70;2.33;;;5.30;75.00;;;;;;5036284;28;20225;-67
2022/01/20 13:02:06;;;;;;;8.80;2.22;;;5.30;74.30;;;;;;5035529;28;20212;-67
2022/01/20 13:04:37;;;;;;;10.90;2.60;;;5.30;74.60;;;;;;5039816;28;20692;-67
2022/01/20 13:07:09;;;;;;;5.72;2.60;;;5.40;74.90;;;;;;5035008;28;20216;-68
2022/01/20 13:09:40;;;;;;;7.45;2.25;;;5.40;74.90;;;;;;5032394;28;20700;-68
2022/01/20 13:12:09;;;;;;;5.57;2.00;;;5.40;74.80;;;;;;5036968;28;20671;-67
2022/01/20 13:14:40;;;;;;;8.63;2.05;;;5.50;74.80;;;;;;5032596;28;20430;-67
2022/01/20 13:17:10;;;;;;;7.45;2.58;;;5.50;74.80;;;;;;5035362;28;20284;-67
2022/01/20 13:19:43;;;;;;;6.30;2.25;;;5.50;74.70;;;;;;5032430;28;20871;-67
2022/01/20 13:25:09;;;;;;;11.00;2.13;;;5.60;74.80;;;;;;5014899;28;20242;-68
2022/01/20 13:27:38;;;;;;;11.95;2.30;;;5.60;74.80;;;;;;5032816;28;20216;-68
2022/01/20 13:30:07;;;;;;;8.90;1.80;;;5.70;74.70;;;;;;5012965;28;20197;-66
2022/01/20 13:32:35;;;;;;;4.63;2.00;;;5.70;74.50;;;;;;4151488;28;10001383;-69
2022/01/20 13:35:06;;;;;;;13.85;2.95;;;5.70;73.90;;;;;;5024008;28;20462;-67
2022/01/20 13:37:37;;;;;;;8.98;2.20;;;5.70;73.60;;;;;;5031838;28;20208;-67
2022/01/20 13:40:07;;;;;;;9.13;2.67;;;5.60;73.80;;;;;;5030275;28;20281;-69
2022/01/20 13:42:45;;;;;;;6.75;2.40;;;5.50;73.90;;;;;;5032649;28;20233;-67
2022/01/20 13:45:15;;;;;;;6.90;2.45;;;5.30;74.50;;;;;;5033540;28;20200;-69
2022/01/20 13:47:52;;;;;;;6.32;2.50;;;5.10;75.20;;;;;;5032837;28;20727;-69
2022/01/20 13:50:23;;;;;;;8.88;2.88;;;4.90;74.80;;;;;;5034321;28;20199;-69
2022/01/20 13:52:51;;;;;;;10.50;3.15;;;4.80;75.10;;;;;;5031230;28;20231;-68
2022/01/20 13:55:22;;;;;;;7.68;2.67;;;4.70;75.40;;;;;;5033760;28;20201;-69
2022/01/20 13:57:50;;;;;;;5.55;2.17;;;4.70;75.40;;;;;;5035957;28;20204;-69
2022/01/20 14:00:22;;;;;;;9.32;2.25;;;4.80;75.30;;;;;;5035427;28;20212;-69
2022/01/20 14:02:50;;;;;;;7.57;2.67;;;4.80;75.50;;;;;;5032383;28;20220;-69
2022/01/20 14:05:27;;;;;;;9.60;2.50;;;4.80;75.30;;;;;;5034577;28;20197;-69
2022/01/20 14:07:55;;;;;;;7.20;2.55;;;4.70;75.30;;;;;;5035603;28;20262;-67
2022/01/20 14:10:24;;;;;;;5.93;2.78;;;4.70;75.30;;;;;;5019448;28;20656;-69
2022/01/20 14:12:52;;;;;;;7.55;3.28;;;4.70;75.40;;;;;;5032730;28;20815;-68
2022/01/20 14:15:21;;;;;;;5.85;2.88;;;4.70;75.70;;;;;;5032621;28;20204;-69
2022/01/20 14:17:52;;;;;;;8.55;2.67;;;4.80;75.70;;;;;;5037336;28;20240;-68
2022/01/20 14:20:24;;;;;;;8.95;3.22;;;4.80;75.70;;;;;;5036359;28;20239;-67
2022/01/20 14:22:52;;;;;;;9.55;2.95;;;4.80;75.70;;;;;;5030916;28;20792;-63
2022/01/20 14:25:22;;;;;;;10.60;4.55;;;4.90;75.70;;;;;;5022594;28;20772;-64
2022/01/20 14:27:52;;;;;;;9.32;3.05;;;4.90;75.60;;;;;;5031381;28;20801;-64
2022/01/20 14:30:21;;;;;;;11.13;2.75;;;4.90;75.70;;;;;;5031750;28;20226;-64
2022/01/20 14:32:50;;;;;;;6.90;3.30;;;4.90;75.70;;;;;;5032872;28;20220;-65
2022/01/20 14:35:20;;;;;;;6.97;2.90;;;4.90;75.70;;;;;;5033278;28;20224;-64
2022/01/20 14:37:49;;;;;;;8.35;3.00;;;5.00;75.70;;;;;;5033030;28;20259;-65
2022/01/20 14:40:19;;;;;;;6.68;2.90;;;5.00;75.70;;;;;;5034660;28;20220;-65
2022/01/20 14:42:49;;;;;;;6.38;2.80;;;5.00;75.40;;;;;;5034027;28;20271;-64
2022/01/20 14:45:19;;;;;;;8.82;2.53;;;4.90;75.10;;;;;;5036677;28;20240;-65
2022/01/20 14:47:51;;;;;;;5.43;2.33;;;4.90;75.00;;;;;;5038835;28;20200;-65